Time;durP1;ratioP1;P1;durP2;ratioP2;P2;SDS_P1;SDS_P2;PMS_P1;PMS_P2;Temp;Humidity;BMP_temperature;BMP_pressure;BME280_temperature;BME280_humidity;BME280_pressure;Samples;Min_cycle;Max_cycle;Signal;HPM_P1;HPM_P2
2023/12/16 00:00:51;;;;;;;0.40;0.40;;;;;;;;;;5014339;28;20122;-80
2023/12/16 00:03:18;;;;;;;0.10;0.10;;;;;;;;;;4995864;28;20030;-80
2023/12/16 00:05:44;;;;;;;0.10;0.10;;;;;;;;;;4994522;28;20154;-80
2023/12/16 00:08:11;;;;;;;0.10;0.10;;;;;;;;;;5013376;28;20094;-80
2023/12/16 00:10:38;;;;;;;0.10;0.10;;;;;;;;;;4997054;28;20044;-80
2023/12/16 00:13:04;;;;;;;0.10;0.10;;;;;;;;;;5012000;28;20052;-81
2023/12/16 00:15:31;;;;;;;0.10;0.10;;;;;;;;;;4995249;28;20106;-79
2023/12/16 00:17:58;;;;;;;0.10;0.10;;;;;;;;;;5015456;28;20046;-79
2023/12/16 00:20:24;;;;;;;0.10;0.10;;;;;;;;;;5000159;28;20054;-80
2023/12/16 00:22:51;;;;;;;0.75;0.57;;;;;;;;;;5017585;28;20054;-80
2023/12/16 00:25:17;;;;;;;0.10;0.10;;;;;;;;;;5015057;28;20068;-80
2023/12/16 00:27:44;;;;;;;0.10;0.10;;;;;;;;;;5000762;28;20061;-79
2023/12/16 00:30:11;;;;;;;0.25;0.25;;;;;;;;;;5016490;28;20050;-80
2023/12/16 00:32:39;;;;;;;0.20;0.20;;;;;;;;;;5002991;28;20054;-80
2023/12/16 00:35:09;;;;;;;0.10;0.10;;;;;;;;;;5020373;28;20104;-80
2023/12/16 00:37:36;;;;;;;0.10;0.10;;;;;;;;;;5015002;28;20074;-80
2023/12/16 00:40:03;;;;;;;0.10;0.10;;;;;;;;;;5000155;28;20100;-80
2023/12/16 00:42:30;;;;;;;0.10;0.10;;;;;;;;;;5016964;28;20152;-80
2023/12/16 00:44:57;;;;;;;0.10;0.10;;;;;;;;;;4999373;28;20137;-81
2023/12/16 00:49:54;;;;;;;0.10;0.10;;;;;;;;;;4983869;28;20507;-78
2023/12/16 00:52:21;;;;;;;0.20;0.20;;;;;;;;;;4990678;28;20059;-78
2023/12/16 00:54:47;;;;;;;0.10;0.10;;;;;;;;;;4990313;28;20050;-78
2023/12/16 00:57:14;;;;;;;0.00;0.00;;;;;;;;;;4985633;28;20090;-78
2023/12/16 00:59:40;;;;;;;0.20;0.20;;;;;;;;;;4989129;28;20057;-78
2023/12/16 01:02:07;;;;;;;0.10;0.10;;;;;;;;;;4988431;28;20543;-78
2023/12/16 01:04:33;;;;;;;0.10;0.10;;;;;;;;;;4989413;28;20062;-78
2023/12/16 01:07:02;;;;;;;0.10;0.10;;;;;;;;;;4990111;28;20090;-78
2023/12/16 01:09:28;;;;;;;0.10;0.10;;;;;;;;;;4990166;28;20075;-78
2023/12/16 01:11:55;;;;;;;0.10;0.10;;;;;;;;;;4989912;28;20137;-78
2023/12/16 01:14:21;;;;;;;0.10;0.10;;;;;;;;;;4988425;28;20485;-77
2023/12/16 01:16:48;;;;;;;0.10;0.10;;;;;;;;;;4989212;28;20176;-78
2023/12/16 01:19:14;;;;;;;0.10;0.10;;;;;;;;;;4989229;28;20059;-78
2023/12/16 01:21:44;;;;;;;0.10;0.10;;;;;;;;;;4984120;28;20138;-78
2023/12/16 01:24:10;;;;;;;0.85;0.85;;;;;;;;;;4989307;28;20118;-78
2023/12/16 01:26:37;;;;;;;0.10;0.10;;;;;;;;;;4987086;28;20114;-78
2023/12/16 01:29:03;;;;;;;0.10;0.10;;;;;;;;;;4987759;28;20054;-78
2023/12/16 01:31:30;;;;;;;0.10;0.10;;;;;;;;;;4989547;28;20050;-77
2023/12/16 01:33:56;;;;;;;0.10;0.10;;;;;;;;;;4987502;28;20868;-78
2023/12/16 01:36:23;;;;;;;0.10;0.10;;;;;;;;;;5000081;28;20073;-77
2023/12/16 01:38:49;;;;;;;0.10;0.10;;;;;;;;;;4987284;28;20062;-78
2023/12/16 01:41:15;;;;;;;0.10;0.10;;;;;;;;;;4987824;28;20094;-78
2023/12/16 01:43:42;;;;;;;0.10;0.10;;;;;;;;;;4988201;28;20146;-77
2023/12/16 01:46:08;;;;;;;0.20;0.20;;;;;;;;;;4986476;28;20055;-78
2023/12/16 01:48:35;;;;;;;0.10;0.10;;;;;;;;;;4998397;28;20102;-78
2023/12/16 01:51:02;;;;;;;0.10;0.10;;;;;;;;;;5008115;28;20516;-78
2023/12/16 01:53:29;;;;;;;0.10;0.10;;;;;;;;;;5007689;28;20058;-77
2023/12/16 01:55:56;;;;;;;0.10;0.10;;;;;;;;;;5009195;28;20051;-78
2023/12/16 01:58:23;;;;;;;0.10;0.10;;;;;;;;;;5007581;28;20054;-78
2023/12/16 02:00:53;;;;;;;0.10;0.10;;;;;;;;;;5015436;28;20101;-78
2023/12/16 02:03:20;;;;;;;0.10;0.10;;;;;;;;;;5008757;28;20057;-77
2023/12/16 02:05:47;;;;;;;0.10;0.10;;;;;;;;;;4991017;28;20763;-77
2023/12/16 02:08:13;;;;;;;0.10;0.10;;;;;;;;;;5006365;28;20059;-78
2023/12/16 02:10:40;;;;;;;0.10;0.10;;;;;;;;;;5008030;28;20133;-78
2023/12/16 02:13:06;;;;;;;0.10;0.10;;;;;;;;;;5008217;28;20065;-78
2023/12/16 02:15:32;;;;;;;0.10;0.10;;;;;;;;;;5008590;28;20054;-78
2023/12/16 02:17:59;;;;;;;0.10;0.10;;;;;;;;;;5008633;28;20058;-78
2023/12/16 02:20:26;;;;;;;0.10;0.10;;;;;;;;;;5008210;28;20050;-77
2023/12/16 02:22:53;;;;;;;0.10;0.10;;;;;;;;;;5007856;28;20473;-78
2023/12/16 02:25:20;;;;;;;0.10;0.10;;;;;;;;;;5007813;28;20082;-78
2023/12/16 02:27:46;;;;;;;0.10;0.10;;;;;;;;;;5008615;28;20105;-78
2023/12/16 02:30:13;;;;;;;0.10;0.10;;;;;;;;;;5006882;28;20133;-78
2023/12/16 02:32:41;;;;;;;0.10;0.10;;;;;;;;;;5007642;28;20061;-77
2023/12/16 02:35:07;;;;;;;0.10;0.10;;;;;;;;;;5005533;28;20050;-78
2023/12/16 02:37:34;;;;;;;0.10;0.10;;;;;;;;;;5007703;28;20402;-77
2023/12/16 02:40:00;;;;;;;0.20;0.20;;;;;;;;;;5008168;28;20063;-77
2023/12/16 02:42:27;;;;;;;0.10;0.10;;;;;;;;;;5007274;28;20054;-78
2023/12/16 02:44:53;;;;;;;0.10;0.10;;;;;;;;;;5007926;28;20058;-78
2023/12/16 02:47:19;;;;;;;0.10;0.10;;;;;;;;;;5006126;28;20072;-78
2023/12/16 02:49:46;;;;;;;0.10;0.10;;;;;;;;;;5006602;28;20207;-77
2023/12/16 02:52:12;;;;;;;0.10;0.10;;;;;;;;;;5014317;28;20065;-77
2023/12/16 02:54:39;;;;;;;0.10;0.10;;;;;;;;;;5005909;28;20133;-77
2023/12/16 02:57:05;;;;;;;0.10;0.10;;;;;;;;;;5007941;28;20062;-77
2023/12/16 02:59:32;;;;;;;0.10;0.10;;;;;;;;;;5007765;28;20050;-77
2023/12/16 03:01:58;;;;;;;0.10;0.10;;;;;;;;;;5008279;28;20050;-77
2023/12/16 03:04:25;;;;;;;0.10;0.10;;;;;;;;;;5007148;28;20672;-77
2023/12/16 03:06:51;;;;;;;0.10;0.10;;;;;;;;;;5007836;28;20062;-77
2023/12/16 03:09:18;;;;;;;0.10;0.10;;;;;;;;;;5007047;28;20472;-77
2023/12/16 03:11:44;;;;;;;0.10;0.10;;;;;;;;;;5008015;28;20268;-78
2023/12/16 03:14:11;;;;;;;0.00;0.00;;;;;;;;;;5005178;28;20133;-78
2023/12/16 03:16:37;;;;;;;0.10;0.10;;;;;;;;;;5006540;28;20050;-77
2023/12/16 03:19:03;;;;;;;0.10;0.10;;;;;;;;;;5007886;28;20133;-78
2023/12/16 03:21:30;;;;;;;0.10;0.10;;;;;;;;;;5006692;28;20562;-78
2023/12/16 03:23:56;;;;;;;0.10;0.10;;;;;;;;;;5007441;28;20058;-77
2023/12/16 03:26:23;;;;;;;0.10;0.10;;;;;;;;;;5007994;28;20141;-77
2023/12/16 03:28:49;;;;;;;1.23;1.23;;;;;;;;;;4989908;28;20551;-78
2023/12/16 03:31:15;;;;;;;1.00;0.95;;;;;;;;;;5006978;28;20054;-78
2023/12/16 03:33:42;;;;;;;0.10;0.10;;;;;;;;;;5006088;28;20521;-78
2023/12/16 03:36:09;;;;;;;0.13;0.13;;;;;;;;;;5006890;28;20057;-77
2023/12/16 03:38:35;;;;;;;0.10;0.10;;;;;;;;;;5007127;28;20069;-77
2023/12/16 03:41:03;;;;;;;1.13;1.10;;;;;;;;;;5007182;28;20413;-77
2023/12/16 03:43:30;;;;;;;0.10;0.10;;;;;;;;;;5006931;28;20057;-77
2023/12/16 03:45:56;;;;;;;0.10;0.10;;;;;;;;;;5004011;28;20058;-77
2023/12/16 03:48:24;;;;;;;0.30;0.30;;;;;;;;;;5006899;28;20054;-78
2023/12/16 03:50:50;;;;;;;0.10;0.10;;;;;;;;;;5006713;28;20062;-77
2023/12/16 03:53:16;;;;;;;0.10;0.10;;;;;;;;;;4991728;28;20074;-77
2023/12/16 03:55:43;;;;;;;0.10;0.10;;;;;;;;;;5006702;28;20101;-78
2023/12/16 03:58:09;;;;;;;0.10;0.10;;;;;;;;;;5005718;28;20055;-78
2023/12/16 04:00:36;;;;;;;0.55;0.55;;;;;;;;;;5004220;28;20567;-77
2023/12/16 04:03:03;;;;;;;0.10;0.10;;;;;;;;;;5005888;28;20061;-78
2023/12/16 04:05:29;;;;;;;0.10;0.10;;;;;;;;;;5005999;28;20102;-78
2023/12/16 04:07:56;;;;;;;0.10;0.10;;;;;;;;;;5000885;28;20058;-77
2023/12/16 04:10:22;;;;;;;0.38;0.38;;;;;;;;;;5007053;28;20054;-78
2023/12/16 04:12:49;;;;;;;0.25;0.25;;;;;;;;;;5006171;28;20137;-77
2023/12/16 04:15:15;;;;;;;0.10;0.10;;;;;;;;;;5006981;28;20062;-78
2023/12/16 04:17:41;;;;;;;0.68;0.68;;;;;;;;;;5008361;28;20054;-77
2023/12/16 04:20:09;;;;;;;0.10;0.10;;;;;;;;;;5005208;28;20078;-78
2023/12/16 04:22:37;;;;;;;0.10;0.10;;;;;;;;;;5005568;28;20054;-78
2023/12/16 04:25:09;;;;;;;1.45;1.05;;;;;;;;;;5004566;28;20082;-77
2023/12/16 04:27:36;;;;;;;0.10;0.10;;;;;;;;;;5005883;28;20053;-77
2023/12/16 04:30:03;;;;;;;0.10;0.10;;;;;;;;;;5005937;28;20055;-77
2023/12/16 04:32:30;;;;;;;0.10;0.10;;;;;;;;;;5005981;28;20133;-77
2023/12/16 04:34:56;;;;;;;0.57;0.57;;;;;;;;;;5006163;28;20058;-77
2023/12/16 04:37:23;;;;;;;0.10;0.10;;;;;;;;;;5006089;28;20069;-77
2023/12/16 04:39:50;;;;;;;0.40;0.40;;;;;;;;;;5002718;28;20086;-78
2023/12/16 04:42:16;;;;;;;0.10;0.10;;;;;;;;;;5006059;28;20054;-77
2023/12/16 04:44:42;;;;;;;0.10;0.10;;;;;;;;;;5005870;28;20497;-78
2023/12/16 04:47:09;;;;;;;0.10;0.10;;;;;;;;;;5001993;28;20093;-78
2023/12/16 04:49:35;;;;;;;0.10;0.10;;;;;;;;;;5008821;28;20112;-77
2023/12/16 04:52:02;;;;;;;0.10;0.10;;;;;;;;;;5010558;28;20053;-78
2023/12/16 04:54:28;;;;;;;0.10;0.10;;;;;;;;;;5005799;28;20066;-77
2023/12/16 04:56:55;;;;;;;0.10;0.10;;;;;;;;;;5006405;28;20512;-78
2023/12/16 04:59:21;;;;;;;0.10;0.10;;;;;;;;;;5004991;28;20599;-78
2023/12/16 05:01:47;;;;;;;0.10;0.10;;;;;;;;;;5007497;28;20137;-77
2023/12/16 05:04:14;;;;;;;0.10;0.10;;;;;;;;;;4991402;28;20089;-77
2023/12/16 05:06:40;;;;;;;0.10;0.10;;;;;;;;;;5010901;28;20058;-77
2023/12/16 05:09:10;;;;;;;0.10;0.10;;;;;;;;;;5008714;28;20058;-77
2023/12/16 05:11:37;;;;;;;0.30;0.30;;;;;;;;;;5000198;28;20066;-77
2023/12/16 05:14:03;;;;;;;0.10;0.10;;;;;;;;;;5009245;28;20062;-78
2023/12/16 05:16:29;;;;;;;0.10;0.10;;;;;;;;;;5009823;28;20050;-78
2023/12/16 05:18:56;;;;;;;0.10;0.10;;;;;;;;;;5009541;28;20058;-77
2023/12/16 05:21:22;;;;;;;0.43;0.32;;;;;;;;;;5009528;28;20058;-76
2023/12/16 05:23:50;;;;;;;0.10;0.10;;;;;;;;;;5008865;28;20137;-76
2023/12/16 05:26:17;;;;;;;0.10;0.10;;;;;;;;;;5008465;28;20516;-76
2023/12/16 05:28:43;;;;;;;0.10;0.10;;;;;;;;;;5008386;28;20521;-77
2023/12/16 05:31:09;;;;;;;0.10;0.10;;;;;;;;;;5009220;28;20058;-76
2023/12/16 05:33:36;;;;;;;0.70;0.70;;;;;;;;;;5009137;28;20587;-78
2023/12/16 05:36:03;;;;;;;0.10;0.10;;;;;;;;;;5010405;28;20081;-76
2023/12/16 05:38:30;;;;;;;0.10;0.10;;;;;;;;;;5007629;28;20138;-76
2023/12/16 05:40:56;;;;;;;0.10;0.10;;;;;;;;;;5005220;28;20090;-76
2023/12/16 05:43:22;;;;;;;0.10;0.10;;;;;;;;;;5008011;28;20146;-77
2023/12/16 05:45:49;;;;;;;0.10;0.10;;;;;;;;;;5000695;28;20618;-77
2023/12/16 05:48:15;;;;;;;0.10;0.10;;;;;;;;;;5008324;28;20551;-76
2023/12/16 05:50:42;;;;;;;0.20;0.20;;;;;;;;;;5008135;28;20504;-76
2023/12/16 05:53:08;;;;;;;0.10;0.10;;;;;;;;;;5003755;28;20061;-76
2023/12/16 05:55:34;;;;;;;0.10;0.10;;;;;;;;;;5009045;28;20078;-76
2023/12/16 05:58:01;;;;;;;0.30;0.30;;;;;;;;;;5010006;28;20065;-76
2023/12/16 06:00:28;;;;;;;0.20;0.20;;;;;;;;;;5008679;28;20077;-77
2023/12/16 06:02:54;;;;;;;3.03;1.10;;;;;;;;;;5003857;28;20061;-77
2023/12/16 06:05:22;;;;;;;0.10;0.10;;;;;;;;;;5004316;28;20054;-76
2023/12/16 06:07:48;;;;;;;0.10;0.10;;;;;;;;;;5008056;28;20058;-76
2023/12/16 06:10:15;;;;;;;0.10;0.10;;;;;;;;;;5008357;28;20110;-77
2023/12/16 06:12:41;;;;;;;0.10;0.10;;;;;;;;;;5007195;28;20059;-76
2023/12/16 06:15:08;;;;;;;0.10;0.10;;;;;;;;;;5007240;28;20058;-76
2023/12/16 06:17:34;;;;;;;0.50;0.50;;;;;;;;;;5006485;28;20046;-76
2023/12/16 06:20:01;;;;;;;0.55;0.32;;;;;;;;;;5008221;28;20158;-77
2023/12/16 06:22:28;;;;;;;0.10;0.10;;;;;;;;;;5002647;28;20058;-76
2023/12/16 06:24:55;;;;;;;0.10;0.10;;;;;;;;;;5004942;28;20056;-76
2023/12/16 06:27:21;;;;;;;0.10;0.10;;;;;;;;;;5003878;28;20508;-76
2023/12/16 06:29:48;;;;;;;0.10;0.10;;;;;;;;;;5004512;28;20054;-76
2023/12/16 06:32:14;;;;;;;0.10;0.10;;;;;;;;;;5007318;28;20050;-77
2023/12/16 06:34:40;;;;;;;0.10;0.10;;;;;;;;;;5007910;28;20610;-76
2023/12/16 06:37:07;;;;;;;0.20;0.20;;;;;;;;;;5002546;28;20065;-76
2023/12/16 06:39:33;;;;;;;0.10;0.10;;;;;;;;;;5006685;28;20141;-76
2023/12/16 06:42:00;;;;;;;0.10;0.10;;;;;;;;;;5007852;28;20066;-77
2023/12/16 06:44:26;;;;;;;0.10;0.10;;;;;;;;;;5007172;28;21008;-77
2023/12/16 06:46:52;;;;;;;0.10;0.10;;;;;;;;;;5007006;28;20050;-77
2023/12/16 06:49:19;;;;;;;0.98;0.90;;;;;;;;;;5007651;28;20358;-75
2023/12/16 06:51:45;;;;;;;0.10;0.10;;;;;;;;;;5002495;28;20090;-77
2023/12/16 06:54:12;;;;;;;0.25;0.25;;;;;;;;;;5005598;28;20144;-76
2023/12/16 06:56:38;;;;;;;0.10;0.10;;;;;;;;;;5005748;28;20621;-79
2023/12/16 06:59:05;;;;;;;0.10;0.10;;;;;;;;;;5003977;28;20105;-79
2023/12/16 07:03:59;;;;;;;0.10;0.10;;;;;;;;;;4999553;28;20109;-75
2023/12/16 07:06:26;;;;;;;0.10;0.10;;;;;;;;;;5003263;28;20105;-75
2023/12/16 07:08:52;;;;;;;0.10;0.10;;;;;;;;;;5004648;28;20054;-75
2023/12/16 07:11:20;;;;;;;0.10;0.10;;;;;;;;;;5006299;28;20081;-75
2023/12/16 07:13:47;;;;;;;0.25;0.25;;;;;;;;;;5005518;28;20714;-74
2023/12/16 07:16:14;;;;;;;0.10;0.10;;;;;;;;;;4996365;28;20390;-75
2023/12/16 07:18:41;;;;;;;0.10;0.10;;;;;;;;;;5005965;28;20062;-75
2023/12/16 07:21:07;;;;;;;0.10;0.10;;;;;;;;;;5006433;28;20054;-77
2023/12/16 07:23:34;;;;;;;0.10;0.10;;;;;;;;;;5005434;28;20141;-77
2023/12/16 07:26:00;;;;;;;0.10;0.10;;;;;;;;;;5002319;28;20074;-76
2023/12/16 07:28:27;;;;;;;0.10;0.10;;;;;;;;;;5003304;28;20054;-75
2023/12/16 07:30:54;;;;;;;0.10;0.10;;;;;;;;;;5006354;28;20616;-75
2023/12/16 07:33:20;;;;;;;0.10;0.10;;;;;;;;;;5020658;28;20054;-74
2023/12/16 07:35:47;;;;;;;0.20;0.20;;;;;;;;;;5006720;28;20061;-75
2023/12/16 07:38:14;;;;;;;0.10;0.10;;;;;;;;;;5005411;28;20157;-75
2023/12/16 07:40:41;;;;;;;0.00;0.00;;;;;;;;;;5002757;28;20614;-76
2023/12/16 07:43:07;;;;;;;0.10;0.10;;;;;;;;;;4999989;28;20062;-75
2023/12/16 07:45:35;;;;;;;0.10;0.10;;;;;;;;;;5005317;28;20054;-75
2023/12/16 07:48:02;;;;;;;0.10;0.10;;;;;;;;;;5004864;28;20058;-75
2023/12/16 07:50:28;;;;;;;0.10;0.10;;;;;;;;;;5006001;28;20055;-75
2023/12/16 07:52:55;;;;;;;0.10;0.10;;;;;;;;;;5003087;28;20057;-75
2023/12/16 07:55:22;;;;;;;5.15;1.77;;;;;;;;;;5006003;28;20531;-77
2023/12/16 07:57:48;;;;;;;0.10;0.10;;;;;;;;;;5006992;28;20128;-75
2023/12/16 08:00:15;;;;;;;0.10;0.10;;;;;;;;;;5016754;28;20065;-75
2023/12/16 08:02:41;;;;;;;0.10;0.10;;;;;;;;;;5010345;28;20113;-75
2023/12/16 08:05:08;;;;;;;0.10;0.10;;;;;;;;;;5008107;28;20089;-74
2023/12/16 08:07:34;;;;;;;0.10;0.10;;;;;;;;;;5023700;28;20058;-76
2023/12/16 08:10:01;;;;;;;0.20;0.20;;;;;;;;;;5022632;28;20563;-75
2023/12/16 08:12:27;;;;;;;0.10;0.10;;;;;;;;;;5023083;28;20057;-75
2023/12/16 08:14:55;;;;;;;0.10;0.10;;;;;;;;;;5021905;28;20053;-75
2023/12/16 08:17:21;;;;;;;0.10;0.10;;;;;;;;;;5018514;28;20058;-74
2023/12/16 08:19:48;;;;;;;0.10;0.10;;;;;;;;;;5020319;28;20559;-74
2023/12/16 08:22:15;;;;;;;0.30;0.30;;;;;;;;;;5018583;28;20088;-74
2023/12/16 08:24:42;;;;;;;0.00;0.00;;;;;;;;;;5024019;28;21953;-76
2023/12/16 08:27:08;;;;;;;0.10;0.10;;;;;;;;;;5018380;28;20480;-76
2023/12/16 08:29:34;;;;;;;0.10;0.10;;;;;;;;;;5025571;28;20058;-75
2023/12/16 08:32:01;;;;;;;0.38;0.38;;;;;;;;;;5007819;28;20054;-75
2023/12/16 08:34:27;;;;;;;0.10;0.10;;;;;;;;;;5016065;28;20507;-75
2023/12/16 08:36:54;;;;;;;0.30;0.30;;;;;;;;;;5024919;28;20084;-75
2023/12/16 08:39:21;;;;;;;0.10;0.10;;;;;;;;;;5023444;28;20053;-75
2023/12/16 08:41:48;;;;;;;0.10;0.10;;;;;;;;;;5011318;28;20853;-74
2023/12/16 08:44:14;;;;;;;0.10;0.10;;;;;;;;;;5018291;28;20054;-76
2023/12/16 08:46:41;;;;;;;0.17;0.17;;;;;;;;;;5029342;28;20133;-77
2023/12/16 08:49:07;;;;;;;0.20;0.20;;;;;;;;;;5019456;28;20516;-75
2023/12/16 08:51:34;;;;;;;0.10;0.10;;;;;;;;;;5003680;28;20104;-74
2023/12/16 08:54:00;;;;;;;0.10;0.10;;;;;;;;;;5025902;28;20137;-75
2023/12/16 08:56:27;;;;;;;0.10;0.10;;;;;;;;;;5026767;28;20108;-77
2023/12/16 08:58:53;;;;;;;0.10;0.10;;;;;;;;;;5000360;28;21500;-74
2023/12/16 09:01:20;;;;;;;0.10;0.10;;;;;;;;;;5028108;28;20054;-74
2023/12/16 09:03:46;;;;;;;0.10;0.10;;;;;;;;;;5027438;28;20535;-75
2023/12/16 09:06:13;;;;;;;0.10;0.10;;;;;;;;;;5025610;28;20058;-75
2023/12/16 09:08:39;;;;;;;0.10;0.10;;;;;;;;;;5026268;28;20062;-77
2023/12/16 09:11:06;;;;;;;0.10;0.10;;;;;;;;;;5027097;28;20062;-75
2023/12/16 09:13:32;;;;;;;0.85;0.85;;;;;;;;;;5026915;28;20136;-75
2023/12/16 09:15:59;;;;;;;0.10;0.10;;;;;;;;;;5026894;28;20152;-75
2023/12/16 09:18:25;;;;;;;0.10;0.10;;;;;;;;;;5027883;28;20050;-75
2023/12/16 09:20:52;;;;;;;0.10;0.10;;;;;;;;;;5021138;28;20058;-75
2023/12/16 09:23:18;;;;;;;0.20;0.20;;;;;;;;;;5024023;28;20085;-74
2023/12/16 09:25:45;;;;;;;0.10;0.10;;;;;;;;;;5017452;28;20066;-75
2023/12/16 09:28:11;;;;;;;0.10;0.10;;;;;;;;;;5021085;28;20058;-76
2023/12/16 09:30:38;;;;;;;0.10;0.10;;;;;;;;;;5028151;28;20104;-75
2023/12/16 09:33:05;;;;;;;0.10;0.10;;;;;;;;;;5026634;28;20046;-78
2023/12/16 09:35:33;;;;;;;0.10;0.10;;;;;;;;;;5018614;28;20058;-77
2023/12/16 09:37:59;;;;;;;0.10;0.10;;;;;;;;;;5018962;28;20527;-75
2023/12/16 09:40:26;;;;;;;0.10;0.10;;;;;;;;;;5024454;28;20061;-75
2023/12/16 09:42:58;;;;;;;0.10;0.10;;;;;;;;;;5025268;28;20220;-75
2023/12/16 09:45:25;;;;;;;0.10;0.10;;;;;;;;;;5027171;28;20065;-75
2023/12/16 09:47:51;;;;;;;0.10;0.10;;;;;;;;;;5026688;28;20053;-76
2023/12/16 09:50:18;;;;;;;0.38;0.38;;;;;;;;;;5026668;28;20221;-76
2023/12/16 09:52:44;;;;;;;0.10;0.10;;;;;;;;;;5024259;28;20057;-76
2023/12/16 09:55:13;;;;;;;0.10;0.10;;;;;;;;;;5021079;28;20061;-75
2023/12/16 09:57:39;;;;;;;0.10;0.10;;;;;;;;;;5027879;28;20128;-76
2023/12/16 10:00:07;;;;;;;0.10;0.10;;;;;;;;;;5021667;28;20538;-76
2023/12/16 10:02:33;;;;;;;1.08;1.00;;;;;;;;;;5026890;28;20050;-75
2023/12/16 10:05:00;;;;;;;0.10;0.10;;;;;;;;;;5025724;28;21337;-75
2023/12/16 10:07:26;;;;;;;0.10;0.10;;;;;;;;;;5026688;28;20111;-76
2023/12/16 10:09:53;;;;;;;2.83;1.17;;;;;;;;;;5023214;28;20058;-76
2023/12/16 10:12:19;;;;;;;0.10;0.10;;;;;;;;;;5024895;28;20062;-76
2023/12/16 10:14:50;;;;;;;0.10;0.10;;;;;;;;;;5018308;28;20097;-75
2023/12/16 10:17:20;;;;;;;0.10;0.10;;;;;;;;;;5013013;28;20070;-76
2023/12/16 10:19:48;;;;;;;0.20;0.20;;;;;;;;;;5027913;28;20050;-75
2023/12/16 10:22:16;;;;;;;0.10;0.10;;;;;;;;;;5022829;28;20073;-75
2023/12/16 10:24:44;;;;;;;0.10;0.10;;;;;;;;;;4979752;28;20058;-76
2023/12/16 10:27:11;;;;;;;0.10;0.10;;;;;;;;;;5018782;28;20050;-77
2023/12/16 10:29:40;;;;;;;0.10;0.10;;;;;;;;;;5025080;28;20120;-74
2023/12/16 10:32:19;;;;;;;0.28;0.28;;;;;;;;;;5020334;28;20554;-77
2023/12/16 10:34:46;;;;;;;0.20;0.20;;;;;;;;;;5019605;28;20061;-74
2023/12/16 10:37:12;;;;;;;0.10;0.10;;;;;;;;;;5025340;28;20205;-74
2023/12/16 10:39:39;;;;;;;0.10;0.10;;;;;;;;;;5000696;28;20524;-74
2023/12/16 10:42:05;;;;;;;0.20;0.20;;;;;;;;;;5024356;28;20050;-75
2023/12/16 10:44:32;;;;;;;0.10;0.10;;;;;;;;;;5004123;28;20081;-75
2023/12/16 10:46:58;;;;;;;0.10;0.10;;;;;;;;;;5023685;28;20982;-75
2023/12/16 10:49:32;;;;;;;0.10;0.10;;;;;;;;;;5023820;28;20061;-77
2023/12/16 10:52:04;;;;;;;0.57;0.57;;;;;;;;;;4999164;28;20153;-75
2023/12/16 10:55:03;;;;;;;0.17;0.17;;;;;;;;;;5021525;28;20058;-75
2023/12/16 10:57:46;;;;;;;0.10;0.10;;;;;;;;;;4977587;28;20054;-75
2023/12/16 11:00:14;;;;;;;0.20;0.20;;;;;;;;;;5024780;28;20085;-77
2023/12/16 11:03:00;;;;;;;0.65;0.40;;;;;;;;;;5020231;28;20054;-75
2023/12/16 11:05:29;;;;;;;0.10;0.10;;;;;;;;;;5027116;28;20054;-75
2023/12/16 11:07:57;;;;;;;0.13;0.13;;;;;;;;;;5017742;28;20112;-75
2023/12/16 11:10:24;;;;;;;0.10;0.10;;;;;;;;;;5023003;28;20050;-75
2023/12/16 11:12:53;;;;;;;0.10;0.10;;;;;;;;;;5024103;28;20061;-75
2023/12/16 11:15:20;;;;;;;0.10;0.10;;;;;;;;;;5025903;28;20058;-75
2023/12/16 11:17:52;;;;;;;0.10;0.10;;;;;;;;;;5024462;28;20045;-75
2023/12/16 11:20:20;;;;;;;1.33;0.40;;;;;;;;;;5027391;28;20057;-75
2023/12/16 11:22:53;;;;;;;6.07;2.92;;;;;;;;;;5003642;28;20539;-75
2023/12/16 11:25:20;;;;;;;0.52;0.52;;;;;;;;;;5017200;28;20063;-77
2023/12/16 11:27:48;;;;;;;0.28;0.28;;;;;;;;;;5019597;28;20056;-75
2023/12/16 11:30:15;;;;;;;0.10;0.10;;;;;;;;;;5026256;28;20054;-76
2023/12/16 11:32:44;;;;;;;3.10;0.75;;;;;;;;;;5024053;28;20064;-75
2023/12/16 11:35:11;;;;;;;0.32;0.30;;;;;;;;;;5024603;28;20053;-75
2023/12/16 11:37:37;;;;;;;0.32;0.32;;;;;;;;;;5024436;28;20061;-75
2023/12/16 11:40:07;;;;;;;0.10;0.10;;;;;;;;;;5026153;28;20058;-75
2023/12/16 11:42:53;;;;;;;0.10;0.10;;;;;;;;;;5026193;28;20042;-75
2023/12/16 11:45:38;;;;;;;0.15;0.15;;;;;;;;;;5025250;28;20128;-75
2023/12/16 11:48:05;;;;;;;0.10;0.10;;;;;;;;;;5026454;28;20483;-77
2023/12/16 11:50:34;;;;;;;0.10;0.10;;;;;;;;;;5007838;28;20056;-75
2023/12/16 11:53:01;;;;;;;0.20;0.20;;;;;;;;;;5024962;28;20050;-75
2023/12/16 11:55:27;;;;;;;0.10;0.10;;;;;;;;;;5021639;28;20058;-75
2023/12/16 11:57:54;;;;;;;0.10;0.10;;;;;;;;;;5025586;28;20129;-75
2023/12/16 12:00:22;;;;;;;0.40;0.40;;;;;;;;;;5025990;28;20169;-76
2023/12/16 12:02:49;;;;;;;0.10;0.10;;;;;;;;;;5006733;28;20057;-75
2023/12/16 12:05:17;;;;;;;0.10;0.10;;;;;;;;;;4997049;28;20054;-76
2023/12/16 12:07:44;;;;;;;0.10;0.10;;;;;;;;;;5018081;28;20064;-75
2023/12/16 12:10:10;;;;;;;0.10;0.10;;;;;;;;;;5004982;28;20536;-77
2023/12/16 12:12:37;;;;;;;1.83;0.88;;;;;;;;;;5029173;28;20078;-76
2023/12/16 12:15:05;;;;;;;0.17;0.17;;;;;;;;;;5025934;28;20060;-76
2023/12/16 12:17:31;;;;;;;0.25;0.25;;;;;;;;;;5024474;28;20054;-75
2023/12/16 12:19:58;;;;;;;0.10;0.10;;;;;;;;;;5028413;28;20062;-75
2023/12/16 12:22:24;;;;;;;0.20;0.20;;;;;;;;;;5029002;28;20054;-75
2023/12/16 12:24:51;;;;;;;0.10;0.10;;;;;;;;;;5027181;28;20057;-75
2023/12/16 12:27:18;;;;;;;0.20;0.20;;;;;;;;;;5010792;28;20066;-75
2023/12/16 12:30:00;;;;;;;0.10;0.10;;;;;;;;;;5025774;28;20140;-76
2023/12/16 12:32:28;;;;;;;0.10;0.10;;;;;;;;;;5025951;28;20104;-75
2023/12/16 12:34:58;;;;;;;0.10;0.10;;;;;;;;;;5029583;28;20057;-76
2023/12/16 12:37:26;;;;;;;0.10;0.10;;;;;;;;;;5027847;28;20053;-75
2023/12/16 12:39:56;;;;;;;1.00;0.73;;;;;;;;;;5027201;28;20091;-75
2023/12/16 12:42:22;;;;;;;0.10;0.10;;;;;;;;;;5028943;28;20054;-75
2023/12/16 12:44:52;;;;;;;0.10;0.10;;;;;;;;;;5028879;28;20111;-75
2023/12/16 12:47:32;;;;;;;0.10;0.10;;;;;;;;;;5033261;28;20515;-74
2023/12/16 12:49:59;;;;;;;0.10;0.10;;;;;;;;;;5024431;28;20519;-75
2023/12/16 12:52:33;;;;;;;0.10;0.10;;;;;;;;;;5029463;28;20057;-75
2023/12/16 12:55:20;;;;;;;0.20;0.20;;;;;;;;;;5030272;28;20049;-77
2023/12/16 12:57:46;;;;;;;0.28;0.22;;;;;;;;;;5024533;28;20137;-76
2023/12/16 13:00:14;;;;;;;0.10;0.10;;;;;;;;;;5029426;28;20112;-75
2023/12/16 13:02:40;;;;;;;0.10;0.10;;;;;;;;;;5029594;28;20104;-76
2023/12/16 13:05:07;;;;;;;0.20;0.20;;;;;;;;;;5028892;28;20527;-75
2023/12/16 13:07:34;;;;;;;0.10;0.10;;;;;;;;;;5029430;28;20077;-75
2023/12/16 13:10:01;;;;;;;2.03;0.73;;;;;;;;;;5086843;23;20161;-80
2023/12/16 13:12:27;;;;;;;0.30;0.30;;;;;;;;;;5015470;28;20061;-81
2023/12/16 13:14:54;;;;;;;0.10;0.10;;;;;;;;;;5019702;28;20051;-81
2023/12/16 13:17:20;;;;;;;0.10;0.10;;;;;;;;;;5018044;28;20050;-81
2023/12/16 13:19:47;;;;;;;0.10;0.10;;;;;;;;;;5036822;28;20150;-81
2023/12/16 13:22:13;;;;;;;0.30;0.30;;;;;;;;;;5033099;28;20082;-78
2023/12/16 13:24:40;;;;;;;0.30;0.30;;;;;;;;;;5014604;28;20058;-80
2023/12/16 13:27:06;;;;;;;0.40;0.40;;;;;;;;;;5017821;28;20098;-80
2023/12/16 13:29:33;;;;;;;0.10;0.10;;;;;;;;;;5018714;28;20046;-80
2023/12/16 13:31:59;;;;;;;0.10;0.10;;;;;;;;;;5020435;28;20051;-80
2023/12/16 13:34:26;;;;;;;0.20;0.20;;;;;;;;;;5016749;28;20050;-80
2023/12/16 13:36:52;;;;;;;0.17;0.17;;;;;;;;;;5020522;28;20057;-81
2023/12/16 13:40:21;;;;;;;0.10;0.10;;;;;;;;;;5021369;28;20042;-80
2023/12/16 13:42:47;;;;;;;0.10;0.10;;;;;;;;;;4978183;28;21051;-80
2023/12/16 13:45:13;;;;;;;0.10;0.10;;;;;;;;;;4972793;28;20055;-80
2023/12/16 13:47:40;;;;;;;0.20;0.20;;;;;;;;;;4990285;28;21041;-80
2023/12/16 13:50:49;;;;;;;;;;;;;;;;;;;;;
2023/12/16 14:07:53;;;;;;;0.10;0.10;;;;;;;;;;5175782;23;20138;-80
2023/12/16 14:10:19;;;;;;;0.10;0.10;;;;;;;;;;4963600;28;20092;-80
2023/12/16 14:12:46;;;;;;;0.10;0.10;;;;;;;;;;4968798;28;20055;-80
2023/12/16 14:15:12;;;;;;;0.55;0.55;;;;;;;;;;4966981;28;20062;-80
2023/12/16 14:17:39;;;;;;;0.10;0.10;;;;;;;;;;4946742;28;20067;-80
2023/12/16 14:20:06;;;;;;;0.32;0.32;;;;;;;;;;4943320;28;20091;-80
2023/12/16 14:22:32;;;;;;;0.10;0.10;;;;;;;;;;4944251;28;20505;-80
2023/12/16 14:24:59;;;;;;;0.57;0.57;;;;;;;;;;4943404;28;20059;-80
2023/12/16 14:27:25;;;;;;;0.15;0.15;;;;;;;;;;4960384;28;20052;-80
2023/12/16 14:29:52;;;;;;;0.28;0.28;;;;;;;;;;4944050;28;20178;-80
2023/12/16 14:32:18;;;;;;;0.40;0.40;;;;;;;;;;4947148;28;20111;-80
2023/12/16 14:34:44;;;;;;;0.40;0.40;;;;;;;;;;4960305;28;20036;-80
2023/12/16 14:37:11;;;;;;;0.10;0.10;;;;;;;;;;4949064;28;20610;-80
2023/12/16 14:39:37;;;;;;;0.10;0.10;;;;;;;;;;4954342;28;20060;-80
2023/12/16 14:42:04;;;;;;;0.47;0.30;;;;;;;;;;4963078;28;20051;-80
2023/12/16 14:44:31;;;;;;;0.45;0.45;;;;;;;;;;4965002;28;20059;-81
2023/12/16 14:46:57;;;;;;;0.10;0.10;;;;;;;;;;4961991;28;20086;-80
2023/12/16 14:49:24;;;;;;;0.45;0.45;;;;;;;;;;4959557;28;20068;-80
2023/12/16 14:51:50;;;;;;;0.10;0.10;;;;;;;;;;4946924;28;20115;-80
2023/12/16 14:54:16;;;;;;;0.10;0.10;;;;;;;;;;4952447;28;20044;-81
2023/12/16 14:56:43;;;;;;;0.20;0.20;;;;;;;;;;4947459;28;20059;-80
2023/12/16 14:59:09;;;;;;;0.10;0.10;;;;;;;;;;4947419;28;20064;-80
2023/12/16 15:01:36;;;;;;;0.10;0.10;;;;;;;;;;4931418;28;20056;-80
2023/12/16 15:04:26;;;;;;;0.10;0.10;;;;;;;;;;4933634;28;20126;-81
2023/12/16 15:07:23;;;;;;;;;;;;;;;;;;;;;